createdAt,value
2023-04-22T00:02:19.819Z,6.16
2023-04-22T00:04:50.268Z,6.10
2023-04-22T00:07:19.180Z,6.07
2023-04-22T00:09:49.293Z,6.02
2023-04-22T00:12:17.851Z,5.98
2023-04-22T00:14:47.090Z,5.91
2023-04-22T00:17:15.438Z,5.88
2023-04-22T00:19:44.094Z,5.82
2023-04-22T00:22:16.023Z,5.77
2023-04-22T00:24:44.697Z,5.72
2023-04-22T00:27:14.912Z,5.69
2023-04-22T00:29:43.403Z,5.64
2023-04-22T00:32:13.030Z,5.60
2023-04-22T00:34:41.541Z,5.58
2023-04-22T00:37:10.928Z,5.56
2023-04-22T00:39:40.071Z,5.52
2023-04-22T00:42:10.128Z,5.50
2023-04-22T00:44:42.143Z,5.45
2023-04-22T00:47:11.018Z,5.44
2023-04-22T00:49:40.692Z,5.39
2023-04-22T00:52:09.683Z,5.35
2023-04-22T00:54:38.633Z,5.30
2023-04-22T00:57:07.529Z,5.25
2023-04-22T00:59:37.070Z,5.24
2023-04-22T01:02:08.830Z,5.23
2023-04-22T01:04:37.657Z,5.23
2023-04-22T01:07:06.977Z,5.21
2023-04-22T01:09:36.337Z,5.19
2023-04-22T01:12:04.959Z,5.17
2023-04-22T01:14:33.580Z,5.11
2023-04-22T01:17:03.268Z,5.10
2023-04-22T01:19:34.656Z,5.08
2023-04-22T01:22:04.611Z,5.04
2023-04-22T01:24:35.153Z,4.99
2023-04-22T01:27:03.851Z,4.97
2023-04-22T01:29:32.259Z,4.92
2023-04-22T01:32:01.836Z,4.83
2023-04-22T01:34:32.235Z,4.80
2023-04-22T01:37:00.830Z,4.78
2023-04-22T01:39:30.383Z,4.81
2023-04-22T01:42:02.239Z,4.82
2023-04-22T01:44:31.025Z,4.80
2023-04-22T01:46:59.790Z,4.76
2023-04-22T01:49:29.226Z,4.72
2023-04-22T01:51:59.022Z,4.69
2023-04-22T01:54:27.820Z,4.63
2023-04-22T01:56:58.771Z,4.58
2023-04-22T01:59:28.682Z,4.50
2023-04-22T02:01:57.659Z,4.46
2023-04-22T02:04:26.518Z,4.41
2023-04-22T02:06:55.066Z,4.42
2023-04-22T02:09:24.123Z,4.41
2023-04-22T02:11:52.871Z,4.36
2023-04-22T02:14:23.206Z,4.31
2023-04-22T02:16:54.492Z,4.26
2023-04-22T02:19:24.043Z,4.26
2023-04-22T02:21:52.745Z,4.20
2023-04-22T02:24:21.528Z,4.19
2023-04-22T02:26:50.644Z,4.12
2023-04-22T02:29:19.333Z,4.13
2023-04-22T02:31:48.944Z,4.08
2023-04-22T02:34:19.193Z,4.04
2023-04-22T02:36:48.668Z,3.99
2023-04-22T02:39:17.322Z,3.92
2023-04-22T02:41:46.153Z,3.90
2023-04-22T02:44:14.581Z,3.85
2023-04-22T02:46:44.074Z,3.80
2023-04-22T02:49:12.769Z,3.78
2023-04-22T02:51:43.603Z,3.75
2023-04-22T02:54:12.331Z,3.75
2023-04-22T02:56:42.671Z,3.73
2023-04-22T02:59:11.492Z,3.74
2023-04-22T03:01:40.316Z,3.72
2023-04-22T03:04:14.506Z,3.70
2023-04-22T03:06:44.698Z,3.68
2023-04-22T03:09:13.498Z,3.66
2023-04-22T03:11:42.487Z,3.63
2023-04-22T03:14:11.386Z,3.59
2023-04-22T03:16:40.654Z,3.58
2023-04-22T03:19:09.318Z,3.58
2023-04-22T03:21:38.536Z,3.55
2023-04-22T03:24:09.843Z,3.50
2023-04-22T03:26:39.095Z,3.52
2023-04-22T03:29:09.213Z,3.47
2023-04-22T03:31:37.940Z,3.46
2023-04-22T03:34:06.959Z,3.45
2023-04-22T03:36:35.761Z,3.41
2023-04-22T03:39:06.146Z,3.43
2023-04-22T03:41:38.881Z,3.42
2023-04-22T03:44:08.043Z,3.39
2023-04-22T03:46:38.889Z,3.43
2023-04-22T03:49:16.485Z,3.46
2023-04-22T03:51:46.333Z,3.49
2023-04-22T03:54:20.130Z,3.51
2023-04-22T03:56:54.212Z,3.47
2023-04-22T03:59:25.210Z,3.46
2023-04-22T04:01:55.162Z,3.49
2023-04-22T04:04:28.629Z,3.53
2023-04-22T04:07:01.331Z,3.56
2023-04-22T04:09:31.075Z,3.60
2023-04-22T04:12:01.360Z,3.62
2023-04-22T04:14:34.531Z,3.67
2023-04-22T04:17:05.072Z,3.69
2023-04-22T04:19:36.930Z,3.75
2023-04-22T04:22:07.048Z,3.75
2023-04-22T04:24:42.415Z,3.81
2023-04-22T04:27:19.509Z,3.92
2023-04-22T04:29:56.045Z,4.01
2023-04-22T04:32:37.377Z,4.06
2023-04-22T04:35:13.105Z,4.12
2023-04-22T04:37:44.499Z,4.20
2023-04-22T04:40:14.052Z,4.23
2023-04-22T04:43:13.123Z,4.32
2023-04-22T04:45:52.692Z,4.40
2023-04-22T04:48:28.545Z,4.48
2023-04-22T04:51:04.548Z,4.60
2023-04-22T04:53:36.226Z,4.77
2023-04-22T04:56:05.269Z,4.90
2023-04-22T04:58:35.542Z,4.98
2023-04-22T05:01:26.471Z,5.02
2023-04-22T05:03:58.475Z,5.09
2023-04-22T05:06:28.130Z,5.20
2023-04-22T05:09:02.152Z,5.35
2023-04-22T05:11:31.053Z,5.44
2023-04-22T05:14:03.744Z,5.55
2023-04-22T05:16:36.397Z,5.70
2023-04-22T05:19:06.042Z,5.88
2023-04-22T05:21:35.282Z,6.09
2023-04-22T05:24:06.257Z,6.24
2023-04-22T05:26:35.651Z,6.37
2023-04-22T05:29:11.604Z,6.48
2023-04-22T05:31:40.727Z,6.63
2023-04-22T05:34:09.327Z,6.78
2023-04-22T05:36:39.847Z,6.93
2023-04-22T05:39:09.345Z,7.07
2023-04-22T05:41:38.155Z,7.22
2023-04-22T05:44:12.282Z,7.44
2023-04-22T05:46:42.209Z,7.62
2023-04-22T05:49:12.131Z,7.83
2023-04-22T05:51:59.674Z,8.06
2023-04-22T05:54:35.734Z,8.31
2023-04-22T05:57:05.303Z,8.60
2023-04-22T05:59:35.735Z,8.84
2023-04-22T06:02:05.504Z,9.12
2023-04-22T06:04:37.272Z,9.36
2023-04-22T06:07:07.104Z,9.61
2023-04-22T06:09:36.334Z,9.80
2023-04-22T06:12:06.272Z,10.00
2023-04-22T06:14:36.618Z,10.19
2023-04-22T06:17:05.412Z,10.39
2023-04-22T06:19:34.275Z,10.57
2023-04-22T06:22:03.254Z,10.76
2023-04-22T06:24:31.888Z,10.96
2023-04-22T06:27:00.466Z,11.18
2023-04-22T06:29:31.368Z,11.36
2023-04-22T06:32:01.872Z,11.59
2023-04-22T06:34:33.716Z,11.76
2023-04-22T06:37:03.263Z,11.92
2023-04-22T06:39:32.010Z,12.08
2023-04-22T06:42:19.195Z,12.26
2023-04-22T06:45:13.202Z,12.47
2023-04-22T06:48:01.844Z,12.77
2023-04-22T06:50:45.335Z,13.13
2023-04-22T06:53:13.765Z,13.40
2023-04-22T06:55:42.437Z,13.61
2023-04-22T06:58:11.192Z,13.68
2023-04-22T07:00:40.770Z,13.76
2023-04-22T07:03:11.067Z,13.90
2023-04-22T07:05:40.280Z,14.07
2023-04-22T07:08:10.447Z,14.23
2023-04-22T07:10:40.438Z,14.49
2023-04-22T07:13:47.734Z,14.87
2023-04-22T07:16:16.470Z,15.15
2023-04-22T07:18:46.855Z,15.36
2023-04-22T07:21:15.511Z,15.58
2023-04-22T07:23:44.794Z,15.82
2023-04-22T07:26:13.623Z,16.04
2023-04-22T07:28:42.381Z,16.25
2023-04-22T07:31:10.992Z,16.47
2023-04-22T07:33:40.187Z,16.70
2023-04-22T07:36:10.273Z,16.85
2023-04-22T07:38:39.254Z,16.98
2023-04-22T07:41:07.933Z,17.10
2023-04-22T07:43:37.106Z,17.34
2023-04-22T07:46:06.012Z,17.61
2023-04-22T07:48:34.756Z,17.92
2023-04-22T07:51:03.487Z,18.07
2023-04-22T07:53:33.665Z,18.18
2023-04-22T07:56:03.662Z,18.27
2023-04-22T07:58:32.764Z,18.45
2023-04-22T08:01:02.054Z,18.53
2023-04-22T08:03:31.138Z,18.75
2023-04-22T08:06:01.544Z,18.85
2023-04-22T08:08:30.244Z,18.98
2023-04-22T08:11:00.287Z,19.09
2023-04-22T08:13:28.895Z,19.29
2023-04-22T08:15:58.048Z,19.38
2023-04-22T08:18:27.312Z,19.60
2023-04-22T08:20:56.373Z,19.75
2023-04-22T08:23:25.399Z,19.83
2023-04-22T08:25:54.147Z,19.84
2023-04-22T08:28:24.930Z,19.87
2023-04-22T08:30:54.045Z,19.90
2023-04-22T08:33:23.087Z,20.02
2023-04-22T08:35:52.601Z,20.42
2023-04-22T08:38:21.649Z,20.43
2023-04-22T08:40:51.126Z,20.48
2023-04-22T08:43:20.345Z,20.76
2023-04-22T08:45:52.045Z,21.19
2023-04-22T08:48:21.345Z,21.39
2023-04-22T08:50:50.459Z,21.40
2023-04-22T08:53:19.754Z,21.16
2023-04-22T08:55:50.463Z,21.10
2023-04-22T08:58:19.434Z,21.34
2023-04-22T09:00:50.055Z,21.56
2023-04-22T09:03:20.016Z,21.85
2023-04-22T09:05:52.096Z,21.91
2023-04-22T09:08:21.330Z,21.99
2023-04-22T09:10:50.839Z,21.89
2023-04-22T09:13:20.666Z,22.08
2023-04-22T09:15:50.836Z,22.36
2023-04-22T09:18:20.303Z,22.55
2023-04-22T09:20:51.443Z,22.57
2023-04-22T09:23:20.248Z,22.56
2023-04-22T09:25:49.178Z,22.36
2023-04-22T09:28:19.851Z,22.33
2023-04-22T09:30:50.188Z,22.80
2023-04-22T09:33:18.762Z,23.06
2023-04-22T09:35:47.926Z,22.99
2023-04-22T09:38:16.849Z,22.75
2023-04-22T09:40:47.595Z,22.74
2023-04-22T09:43:20.084Z,22.86
2023-04-22T09:45:50.296Z,22.29
2023-04-22T09:48:20.874Z,22.08
2023-04-22T09:50:52.035Z,22.33
2023-04-22T09:53:22.517Z,23.03
2023-04-22T09:55:53.332Z,23.46
2023-04-22T09:58:25.996Z,23.88
2023-04-22T10:00:58.266Z,24.54
2023-04-22T10:03:27.585Z,24.51
2023-04-22T10:05:56.294Z,24.67
2023-04-22T10:08:25.071Z,24.99
2023-04-22T10:10:55.807Z,24.69
2023-04-22T10:13:24.774Z,24.39
2023-04-22T10:15:57.027Z,24.53
2023-04-22T10:18:28.813Z,24.52
2023-04-22T10:20:59.176Z,24.12
2023-04-22T10:23:28.059Z,23.75
2023-04-22T10:25:57.836Z,24.17
2023-04-22T10:28:30.834Z,24.53
2023-04-22T10:31:01.376Z,24.30
2023-04-22T10:33:40.701Z,24.42
2023-04-22T10:36:11.437Z,24.49
2023-04-22T10:38:42.771Z,25.25
2023-04-22T10:41:15.749Z,25.30
2023-04-22T10:43:46.155Z,25.27
2023-04-22T10:47:02.933Z,25.27
2023-04-22T10:49:35.372Z,25.90
2023-04-22T10:52:06.653Z,26.30
2023-04-22T10:54:59.289Z,26.03
2023-04-22T10:57:42.406Z,26.15
2023-04-22T11:00:21.085Z,26.48
2023-04-22T11:02:56.107Z,26.01
2023-04-22T11:05:27.506Z,25.20
2023-04-22T11:08:02.832Z,24.15
2023-04-22T11:10:34.442Z,23.09
2023-04-22T11:13:03.428Z,22.54
2023-04-22T11:15:32.893Z,22.04
2023-04-22T11:18:03.414Z,21.74
2023-04-22T11:20:32.330Z,21.53
2023-04-22T11:23:01.969Z,21.85
2023-04-22T11:25:30.510Z,22.33
2023-04-22T11:27:59.839Z,22.23
2023-04-22T11:30:32.481Z,22.50
2023-04-22T11:33:03.562Z,22.47
2023-04-22T11:35:34.006Z,22.32
2023-04-22T11:38:05.050Z,22.27
2023-04-22T11:40:39.548Z,22.74
2023-04-22T11:43:10.857Z,23.17
2023-04-22T11:45:41.296Z,23.57
2023-04-22T11:48:13.278Z,24.10
2023-04-22T11:50:44.633Z,24.55
2023-04-22T11:53:16.285Z,24.54
2023-04-22T11:55:46.266Z,24.57
2023-04-22T11:58:16.560Z,24.93
2023-04-22T12:00:47.359Z,25.35
2023-04-22T12:03:19.802Z,25.80
2023-04-22T12:05:51.518Z,26.13
2023-04-22T12:08:21.633Z,25.93
2023-04-22T12:10:52.285Z,25.92
2023-04-22T12:13:22.707Z,25.84
2023-04-22T12:15:56.271Z,25.54
2023-04-22T12:18:32.951Z,25.39
2023-04-22T12:21:02.599Z,25.54
2023-04-22T12:23:42.393Z,25.33
2023-04-22T12:26:11.339Z,24.94
2023-04-22T12:28:40.653Z,24.89
2023-04-22T12:31:09.925Z,25.03
2023-04-22T12:33:40.939Z,24.57
2023-04-22T12:36:10.640Z,24.54
2023-04-22T12:38:39.559Z,24.61
2023-04-22T12:41:09.453Z,24.41
2023-04-22T12:43:39.572Z,24.27
2023-04-22T12:46:10.166Z,24.29
2023-04-22T12:48:40.519Z,24.63
2023-04-22T12:51:09.268Z,25.21
2023-04-22T12:53:38.248Z,25.49
2023-04-22T12:56:09.706Z,24.86
2023-04-22T12:58:38.347Z,24.06
2023-04-22T13:01:07.167Z,23.52
2023-04-22T13:03:35.960Z,23.50
2023-04-22T13:06:06.762Z,23.71
2023-04-22T13:08:37.187Z,24.27
2023-04-22T13:11:05.791Z,24.11
2023-04-22T13:13:34.206Z,23.56
2023-04-22T13:16:05.289Z,22.98
2023-04-22T13:18:36.657Z,23.25
2023-04-22T13:21:07.720Z,23.37
2023-04-22T13:23:40.143Z,23.18
2023-04-22T13:26:08.734Z,22.73
2023-04-22T13:28:37.408Z,22.37
2023-04-22T13:31:06.409Z,22.00
2023-04-22T13:33:35.011Z,21.70
2023-04-22T13:36:03.656Z,21.57
2023-04-22T13:38:34.328Z,21.49
2023-04-22T13:41:03.442Z,21.52
2023-04-22T13:43:32.357Z,21.72
2023-04-22T13:46:03.040Z,22.35
2023-04-22T13:48:32.467Z,22.98
2023-04-22T13:51:01.370Z,23.46
2023-04-22T13:53:30.037Z,23.85
2023-04-22T13:55:59.999Z,23.94
2023-04-22T13:58:29.381Z,24.12
2023-04-22T14:00:58.154Z,24.17
2023-04-22T14:03:28.590Z,24.46
2023-04-22T14:05:57.460Z,24.70
2023-04-22T14:08:26.314Z,24.78
2023-04-22T14:10:56.406Z,24.81
2023-04-22T14:13:28.581Z,24.58
2023-04-22T14:15:57.357Z,24.21
2023-04-22T14:18:27.006Z,23.70
2023-04-22T14:20:55.943Z,23.20
2023-04-22T14:23:25.018Z,22.70
2023-04-22T14:25:54.098Z,22.29
2023-04-22T14:28:23.378Z,22.07
2023-04-22T14:30:53.805Z,21.86
2023-04-22T14:33:24.355Z,21.63
2023-04-22T14:35:53.336Z,21.43
2023-04-22T14:38:23.865Z,21.23
2023-04-22T14:40:52.872Z,21.08
2023-04-22T14:43:21.776Z,20.93
2023-04-22T14:45:50.592Z,20.80
2023-04-22T14:48:21.223Z,20.69
2023-04-22T14:50:50.137Z,20.56
2023-04-22T14:53:18.702Z,20.44
2023-04-22T14:55:47.730Z,20.30
2023-04-22T14:58:16.472Z,20.15
2023-04-22T15:00:45.492Z,20.02
2023-04-22T15:03:14.319Z,19.91
2023-04-22T15:05:44.490Z,19.78
2023-04-22T15:08:15.485Z,19.63
2023-04-22T15:10:44.020Z,19.48
2023-04-22T15:13:12.446Z,19.48
2023-04-22T15:15:41.435Z,19.64
2023-04-22T15:18:14.905Z,19.89
2023-04-22T15:20:48.030Z,20.15
2023-04-22T15:23:16.844Z,20.11
2023-04-22T15:25:46.208Z,20.02
2023-04-22T15:28:15.836Z,20.18
2023-04-22T15:30:44.719Z,20.42
2023-04-22T15:33:13.556Z,20.54
2023-04-22T15:35:45.330Z,20.63
2023-04-22T15:38:17.975Z,20.60
2023-04-22T15:40:47.317Z,20.64
2023-04-22T15:43:16.197Z,20.69
2023-04-22T15:45:44.991Z,20.72
2023-04-22T15:48:13.923Z,20.73
2023-04-22T15:50:42.936Z,20.74
2023-04-22T15:53:11.787Z,20.71
2023-04-22T15:55:41.854Z,20.63
2023-04-22T15:58:10.546Z,20.57
2023-04-22T16:00:42.005Z,20.50
2023-04-22T16:03:11.614Z,20.47
2023-04-22T16:05:40.653Z,20.40
2023-04-22T16:08:09.432Z,20.28
2023-04-22T16:10:38.058Z,20.20
2023-04-22T16:13:09.293Z,20.09
2023-04-22T16:15:38.531Z,19.98
2023-04-22T16:18:07.689Z,19.90
2023-04-22T16:20:36.931Z,19.80
2023-04-22T16:23:06.359Z,19.72
2023-04-22T16:25:36.224Z,19.67
2023-04-22T16:28:04.928Z,19.63
2023-04-22T16:30:35.401Z,19.57
2023-04-22T16:33:04.108Z,19.47
2023-04-22T16:35:33.138Z,19.31
2023-04-22T16:38:03.856Z,19.16
2023-04-22T16:40:33.011Z,19.03
2023-04-22T16:43:05.607Z,18.88
2023-04-22T16:45:35.666Z,18.82
2023-04-22T16:48:04.989Z,18.73
2023-04-22T16:50:33.702Z,18.64
2023-04-22T16:53:05.020Z,18.57
2023-04-22T16:55:35.092Z,18.51
2023-04-22T16:58:05.626Z,18.46
2023-04-22T17:00:35.672Z,18.45
2023-04-22T17:03:04.417Z,18.38
2023-04-22T17:05:33.329Z,18.30
2023-04-22T17:08:02.622Z,18.17
2023-04-22T17:10:32.716Z,17.90
2023-04-22T17:13:01.682Z,17.63
2023-04-22T17:15:30.704Z,17.41
2023-04-22T17:18:02.199Z,17.21
2023-04-22T17:20:32.142Z,17.05
2023-04-22T17:23:01.033Z,16.92
2023-04-22T17:25:29.799Z,16.75
2023-04-22T17:27:58.728Z,16.63
2023-04-22T17:30:27.431Z,16.48
2023-04-22T17:32:56.157Z,16.34
2023-04-22T17:35:27.093Z,16.22
2023-04-22T17:37:57.988Z,16.06
2023-04-22T17:40:27.038Z,15.94
2023-04-22T17:42:55.567Z,15.82
2023-04-22T17:45:24.660Z,15.72
2023-04-22T17:47:54.080Z,15.59
2023-04-22T17:50:23.601Z,15.46
2023-04-22T17:52:53.882Z,15.34
2023-04-22T17:55:22.642Z,15.18
2023-04-22T17:57:51.514Z,15.07
2023-04-22T18:00:20.220Z,14.96
2023-04-22T18:02:49.103Z,14.84
2023-04-22T18:05:18.154Z,14.74
2023-04-22T18:07:47.626Z,14.63
2023-04-22T18:10:18.548Z,14.52
2023-04-22T18:12:47.352Z,14.40
2023-04-22T18:15:15.966Z,14.36
2023-04-22T18:17:44.546Z,14.25
2023-04-22T18:20:20.644Z,14.19
2023-04-22T18:22:52.279Z,14.10
2023-04-22T18:25:24.374Z,14.02
2023-04-22T18:27:55.474Z,13.94
2023-04-22T18:30:25.202Z,13.85
2023-04-22T18:32:54.383Z,13.81
2023-04-22T18:35:23.766Z,13.70
2023-04-22T18:37:53.078Z,13.63
2023-04-22T18:40:23.784Z,13.54
2023-04-22T18:42:52.354Z,13.45
2023-04-22T18:45:23.232Z,13.36
2023-04-22T18:47:52.201Z,13.30
2023-04-22T18:50:22.485Z,13.23
2023-04-22T18:52:51.359Z,13.19
2023-04-22T18:55:20.679Z,13.12
2023-04-22T18:57:50.954Z,13.06
2023-04-22T19:00:20.149Z,13.00
2023-04-22T19:02:49.055Z,12.93
2023-04-22T19:05:18.480Z,12.86
2023-04-22T19:07:48.335Z,12.71
2023-04-22T19:10:17.052Z,12.61
2023-04-22T19:12:45.644Z,12.49
2023-04-22T19:15:20.052Z,12.32
2023-04-22T19:17:49.070Z,12.21
2023-04-22T19:20:17.765Z,12.09
2023-04-22T19:22:46.392Z,11.96
2023-04-22T19:25:16.191Z,11.88
2023-04-22T19:27:44.879Z,11.83
2023-04-22T19:30:15.273Z,11.78
2023-04-22T19:32:45.791Z,11.72
2023-04-22T19:35:16.634Z,11.66
2023-04-22T19:37:45.894Z,11.62
2023-04-22T19:40:18.007Z,11.56
2023-04-22T19:42:48.212Z,11.52
2023-04-22T19:45:17.377Z,11.51
2023-04-22T19:47:48.357Z,11.48
2023-04-22T19:50:19.318Z,11.32
2023-04-22T19:52:49.022Z,11.18
2023-04-22T19:55:18.433Z,11.09
2023-04-22T19:57:48.218Z,10.98
2023-04-22T20:00:17.781Z,10.89
2023-04-22T20:02:48.915Z,10.82
2023-04-22T20:05:19.299Z,10.77
2023-04-22T20:07:49.183Z,10.73
2023-04-22T20:10:18.248Z,10.66
2023-04-22T20:12:47.635Z,10.62
2023-04-22T20:15:16.956Z,10.56
2023-04-22T20:17:47.787Z,10.51
2023-04-22T20:20:18.031Z,10.48
2023-04-22T20:22:47.966Z,10.45
2023-04-22T20:25:18.408Z,10.37
2023-04-22T20:27:47.436Z,10.36
2023-04-22T20:30:16.781Z,10.30
2023-04-22T20:32:46.601Z,10.24
2023-04-22T20:35:18.018Z,10.16
2023-04-22T20:37:48.038Z,10.08
2023-04-22T20:40:19.090Z,10.03
2023-04-22T20:42:47.775Z,9.96
2023-04-22T20:45:18.149Z,9.92
2023-04-22T20:47:47.349Z,9.88
2023-04-22T20:50:17.476Z,9.84
2023-04-22T20:52:46.493Z,9.81
2023-04-22T20:55:16.073Z,9.80
2023-04-22T20:57:45.115Z,9.80
2023-04-22T21:00:14.718Z,9.75
2023-04-22T21:02:44.102Z,9.74
2023-04-22T21:05:13.612Z,9.79
2023-04-22T21:07:46.919Z,9.83
2023-04-22T21:10:16.189Z,9.80
2023-04-22T21:12:45.572Z,9.83
2023-04-22T21:15:15.510Z,9.88
2023-04-22T21:17:52.065Z,9.88
2023-04-22T21:20:23.746Z,9.90
2023-04-22T21:22:55.804Z,9.86
2023-04-22T21:25:25.236Z,9.82
2023-04-22T21:27:54.410Z,9.79
2023-04-22T21:30:24.168Z,9.72
2023-04-22T21:32:52.736Z,9.66
2023-04-22T21:35:23.878Z,9.66
2023-04-22T21:37:53.802Z,9.63
2023-04-22T21:40:24.470Z,9.59
2023-04-22T21:42:52.968Z,9.57
2023-04-22T21:45:21.695Z,9.53
2023-04-22T21:47:50.129Z,9.54
2023-04-22T21:50:20.786Z,9.53
2023-04-22T21:52:50.582Z,9.53
2023-04-22T21:55:19.571Z,9.52
2023-04-22T21:57:49.427Z,9.51
2023-04-22T22:00:18.747Z,9.48
2023-04-22T22:02:49.548Z,9.44
2023-04-22T22:05:18.231Z,9.39
2023-04-22T22:07:46.693Z,9.35
2023-04-22T22:10:18.380Z,9.33
2023-04-22T22:12:48.432Z,9.30
2023-04-22T22:15:19.082Z,9.29
2023-04-22T22:17:48.221Z,9.27
2023-04-22T22:20:18.203Z,9.26
2023-04-22T22:22:47.254Z,9.27
2023-04-22T22:25:17.160Z,9.27
2023-04-22T22:27:47.324Z,9.28
2023-04-22T22:30:16.952Z,9.26
2023-04-22T22:32:47.138Z,9.26
2023-04-22T22:35:16.700Z,9.23
2023-04-22T22:37:45.966Z,9.21
2023-04-22T22:40:14.601Z,9.15
2023-04-22T22:42:43.984Z,9.12
2023-04-22T22:45:13.211Z,9.08
2023-04-22T22:47:42.188Z,9.03
2023-04-22T22:50:12.693Z,8.98
2023-04-22T22:52:41.426Z,8.95
2023-04-22T22:55:10.385Z,8.87
2023-04-22T22:57:39.488Z,8.81
2023-04-22T23:00:12.115Z,8.77
2023-04-22T23:02:40.802Z,8.71
2023-04-22T23:05:11.900Z,8.69
2023-04-22T23:07:40.367Z,8.68
2023-04-22T23:10:10.158Z,8.66
2023-04-22T23:12:38.630Z,8.63
2023-04-22T23:15:09.086Z,8.63
2023-04-22T23:17:38.766Z,8.64
2023-04-22T23:20:10.138Z,8.64
2023-04-22T23:22:41.168Z,8.58
2023-04-22T23:25:11.144Z,8.58
2023-04-22T23:27:40.765Z,8.55
2023-04-22T23:30:10.359Z,8.50
2023-04-22T23:32:41.399Z,8.44
2023-04-22T23:35:14.243Z,8.39
2023-04-22T23:37:46.534Z,8.38
2023-04-22T23:40:15.333Z,8.36
2023-04-22T23:42:43.938Z,8.34
2023-04-22T23:45:13.095Z,8.33
2023-04-22T23:47:42.366Z,8.31
2023-04-22T23:50:14.168Z,8.29
2023-04-22T23:52:44.300Z,8.28
2023-04-22T23:55:16.157Z,8.27
2023-04-22T23:57:45.142Z,8.26
